createdAt,value
2018-08-04T00:00:42.273Z,64.38
2018-08-04T00:03:10.204Z,65.15
2018-08-04T00:05:38.195Z,65.06
2018-08-04T00:08:06.137Z,64.56
2018-08-04T00:10:34.041Z,63.96
2018-08-04T00:13:01.954Z,64.53
2018-08-04T00:15:29.893Z,65.09
2018-08-04T00:17:57.859Z,66.00
2018-08-04T00:20:25.766Z,65.14
2018-08-04T00:22:53.632Z,65.28
2018-08-04T00:25:21.488Z,64.91
2018-08-04T00:27:49.351Z,65.13
2018-08-04T00:30:17.231Z,65.04
2018-08-04T00:32:45.137Z,65.67
2018-08-04T00:35:13.041Z,65.96
2018-08-04T00:37:40.975Z,66.28
2018-08-04T00:40:10.534Z,65.63
2018-08-04T00:42:38.458Z,65.64
2018-08-04T00:45:06.340Z,65.23
2018-08-04T00:47:34.584Z,65.51
2018-08-04T00:50:02.718Z,65.07
2018-08-04T00:52:30.621Z,65.30
2018-08-04T00:54:58.490Z,64.55
2018-08-04T00:57:26.445Z,65.41
2018-08-04T00:59:54.317Z,64.72
2018-08-04T01:02:22.213Z,64.99
2018-08-04T01:04:50.545Z,64.66
2018-08-04T01:07:18.409Z,65.24
2018-08-04T01:09:46.281Z,64.95
2018-08-04T01:12:14.170Z,65.33
2018-08-04T01:14:42.041Z,65.23
2018-08-04T01:17:09.989Z,64.75
2018-08-04T01:19:37.844Z,64.32
2018-08-04T01:22:05.827Z,65.09
2018-08-04T01:24:33.715Z,64.51
2018-08-04T01:27:01.557Z,64.83
2018-08-04T01:29:29.477Z,64.14
2018-08-04T01:31:57.373Z,63.79
2018-08-04T01:34:25.289Z,63.89
2018-08-04T01:36:53.143Z,64.51
2018-08-04T01:39:21.006Z,63.15
2018-08-04T01:41:48.934Z,63.76
2018-08-04T01:44:16.765Z,63.53
2018-08-04T01:46:44.876Z,62.93
2018-08-04T01:49:12.783Z,63.04
2018-08-04T01:51:40.667Z,62.30
2018-08-04T01:54:08.548Z,63.51
2018-08-04T01:56:36.456Z,62.89
2018-08-04T01:59:04.410Z,63.12
2018-08-04T02:01:32.341Z,63.27
2018-08-04T02:04:00.232Z,64.24
2018-08-04T02:06:28.171Z,64.72
2018-08-04T02:08:56.038Z,65.53
2018-08-04T02:11:23.906Z,66.08
2018-08-04T02:13:51.774Z,65.75
2018-08-04T02:16:19.610Z,65.48
2018-08-04T02:18:47.537Z,65.91
2018-08-04T02:21:15.411Z,65.90
2018-08-04T02:23:43.269Z,65.58
2018-08-04T02:26:11.426Z,64.86
2018-08-04T02:28:39.269Z,65.08
2018-08-04T02:31:07.165Z,64.48
2018-08-04T02:33:35.053Z,64.76
2018-08-04T02:36:02.983Z,65.15
2018-08-04T02:38:30.876Z,64.38
2018-08-04T02:40:58.732Z,64.41
2018-08-04T02:43:26.597Z,64.40
2018-08-04T02:45:55.275Z,64.81
2018-08-04T02:48:23.131Z,66.00
2018-08-04T02:50:50.997Z,65.26
2018-08-04T02:53:19.006Z,64.28
2018-08-04T02:55:46.893Z,64.49
2018-08-04T02:58:14.742Z,66.35
2018-08-04T03:08:52.750Z,66.29
2018-08-04T03:11:20.630Z,66.57
2018-08-04T03:13:48.526Z,65.70
2018-08-04T03:16:16.429Z,65.87
2018-08-04T03:18:44.370Z,64.44
2018-08-04T03:21:12.316Z,64.29
2018-08-04T03:23:40.235Z,63.84
2018-08-04T03:26:08.111Z,62.04
2018-08-04T03:28:36.022Z,61.40
2018-08-04T03:31:04.115Z,60.34
2018-08-04T03:33:32.054Z,59.92
2018-08-04T03:35:59.937Z,58.44
2018-08-04T03:38:27.818Z,56.18
2018-08-04T03:40:55.667Z,56.80
2018-08-04T03:43:23.582Z,53.80
2018-08-04T03:45:51.502Z,50.87
2018-08-04T03:48:19.389Z,48.86
2018-08-04T03:50:47.254Z,45.73
2018-08-04T03:53:15.112Z,43.87
2018-08-04T03:55:42.948Z,42.00
2018-08-04T03:58:10.840Z,40.97
2018-08-04T04:00:38.677Z,40.90
2018-08-04T04:03:06.652Z,38.11
2018-08-04T04:05:34.516Z,36.88
2018-08-04T04:08:02.397Z,34.24
2018-08-04T04:10:30.262Z,33.98
2018-08-04T04:12:58.135Z,33.17
2018-08-04T04:15:26.127Z,32.67
2018-08-04T04:17:53.999Z,32.59
2018-08-04T04:20:21.880Z,30.47
2018-08-04T04:22:50.077Z,29.75
2018-08-04T04:25:18.059Z,28.84
2018-08-04T04:27:45.891Z,29.35
2018-08-04T04:30:14.577Z,28.81
2018-08-04T04:32:42.422Z,28.86
2018-08-04T04:35:10.306Z,29.17
2018-08-04T04:37:38.181Z,27.38
2018-08-04T04:40:06.605Z,25.56
2018-08-04T04:42:34.479Z,24.49
2018-08-04T04:45:02.362Z,24.77
2018-08-04T04:47:30.306Z,26.48
2018-08-04T04:49:58.189Z,25.82
2018-08-04T04:52:26.057Z,28.21
2018-08-04T04:54:53.907Z,29.20
2018-08-04T04:57:21.738Z,29.97
2018-08-04T04:59:49.630Z,29.83
2018-08-04T05:02:17.508Z,33.43
2018-08-04T05:04:45.355Z,31.61
2018-08-04T05:07:13.193Z,30.16
2018-08-04T05:09:41.019Z,32.17
2018-08-04T05:12:08.926Z,31.72
2018-08-04T05:14:36.754Z,31.35
2018-08-04T05:17:04.707Z,31.59
2018-08-04T05:19:32.573Z,30.63
2018-08-04T05:22:00.450Z,28.76
2018-08-04T05:24:28.578Z,27.09
2018-08-04T05:26:56.448Z,29.13
2018-08-04T05:29:24.306Z,29.81
2018-08-04T05:31:52.219Z,30.12
2018-08-04T05:34:20.053Z,31.64
2018-08-04T05:36:48.020Z,32.46
2018-08-04T05:39:15.901Z,33.07
2018-08-04T05:41:43.754Z,36.52
2018-08-04T05:44:11.654Z,37.38
2018-08-04T05:46:39.560Z,36.80
2018-08-04T05:49:07.471Z,35.97
2018-08-04T05:51:35.330Z,35.49
2018-08-04T05:54:03.241Z,38.15
2018-08-04T05:56:31.081Z,38.42
2018-08-04T05:58:58.939Z,36.73
2018-08-04T06:01:26.840Z,38.73
2018-08-04T06:03:54.789Z,38.57
2018-08-04T06:06:22.718Z,37.08
2018-08-04T06:08:50.643Z,32.72
2018-08-04T06:11:18.526Z,34.27
2018-08-04T06:13:46.407Z,36.59
2018-08-04T06:16:14.269Z,37.63
2018-08-04T06:18:42.135Z,39.44
2018-08-04T06:21:10.045Z,38.25
2018-08-04T06:23:37.923Z,41.05
2018-08-04T06:26:05.882Z,39.33
2018-08-04T06:28:33.782Z,37.85
2018-08-04T06:31:01.630Z,33.62
2018-08-04T06:33:29.553Z,35.42
2018-08-04T06:35:57.419Z,34.89
2018-08-04T06:38:25.269Z,38.66
2018-08-04T06:40:53.121Z,37.77
2018-08-04T06:43:20.986Z,36.59
2018-08-04T06:45:48.882Z,36.46
2018-08-04T06:48:16.749Z,37.19
2018-08-04T06:50:44.665Z,36.50
2018-08-04T06:53:12.568Z,37.31
2018-08-04T06:55:40.474Z,37.93
2018-08-04T06:58:08.472Z,40.78
2018-08-04T07:00:36.386Z,39.03
2018-08-04T07:03:04.330Z,37.16
2018-08-04T07:05:32.255Z,36.53
2018-08-04T07:08:00.181Z,37.32
2018-08-04T07:10:28.900Z,37.82
2018-08-04T07:12:56.805Z,38.70
2018-08-04T07:15:24.751Z,36.19
2018-08-04T07:17:52.653Z,36.79
2018-08-04T07:20:20.817Z,38.51
2018-08-04T07:22:48.699Z,36.27
2018-08-04T07:25:16.621Z,39.02
2018-08-04T07:27:44.477Z,37.36
2018-08-04T07:30:13.893Z,39.45
2018-08-04T07:32:42.986Z,38.55
2018-08-04T07:35:10.919Z,39.83
2018-08-04T07:37:38.977Z,41.43
2018-08-04T07:40:06.957Z,39.48
2018-08-04T07:42:34.798Z,42.01
2018-08-04T07:45:02.665Z,39.88
2018-08-04T07:47:30.553Z,41.45
2018-08-04T07:49:58.404Z,42.92
2018-08-04T07:52:26.272Z,39.31
2018-08-04T07:54:54.158Z,39.13
2018-08-04T07:57:22.104Z,42.77
2018-08-04T07:59:49.978Z,43.29
2018-08-04T08:02:17.910Z,43.64
2018-08-04T08:04:45.890Z,43.48
2018-08-04T08:07:13.729Z,40.13
2018-08-04T08:09:41.882Z,38.65
2018-08-04T08:12:09.822Z,39.07
2018-08-04T08:14:37.816Z,40.19
2018-08-04T08:17:06.095Z,39.36
2018-08-04T08:19:34.285Z,38.41
2018-08-04T08:22:02.237Z,37.33
2018-08-04T08:24:30.541Z,38.19
2018-08-04T08:26:58.381Z,40.60
2018-08-04T08:29:26.233Z,39.06
2018-08-04T08:31:54.087Z,39.04
2018-08-04T08:34:21.937Z,40.11
2018-08-04T08:36:49.745Z,39.24
2018-08-04T08:39:17.601Z,36.79
2018-08-04T08:41:45.535Z,35.69
2018-08-04T08:44:13.469Z,35.38
2018-08-04T08:46:41.339Z,36.50
2018-08-04T08:49:09.530Z,35.18
2018-08-04T08:51:37.421Z,37.73
2018-08-04T08:54:05.456Z,36.58
2018-08-04T08:56:33.357Z,38.72
2018-08-04T08:59:01.258Z,36.15
2018-08-04T09:01:29.161Z,37.58
2018-08-04T09:03:56.965Z,37.87
2018-08-04T09:06:24.833Z,37.23
2018-08-04T09:08:52.676Z,37.02
2018-08-04T09:11:20.516Z,38.96
2018-08-04T09:13:49.186Z,39.05
2018-08-04T09:16:18.243Z,37.72
2018-08-04T09:18:46.152Z,37.49
2018-08-04T09:21:14.013Z,36.88
2018-08-04T09:23:41.891Z,37.53
2018-08-04T09:26:09.734Z,37.15
2018-08-04T09:28:37.578Z,35.34
2018-08-04T09:31:05.845Z,34.35
2018-08-04T09:33:33.780Z,34.29
2018-08-04T09:36:01.640Z,36.96
2018-08-04T09:38:29.561Z,36.96
2018-08-04T09:40:57.514Z,37.91
2018-08-04T09:43:26.414Z,37.05
2018-08-04T09:45:54.485Z,36.36
2018-08-04T09:48:22.326Z,35.95
2018-08-04T09:50:50.210Z,35.85
2018-08-04T09:53:18.039Z,34.84
2018-08-04T09:55:45.806Z,35.22
2018-08-04T09:58:13.700Z,35.15
2018-08-04T10:00:48.106Z,35.91
2018-08-04T10:03:15.969Z,37.40
2018-08-04T10:05:43.873Z,36.03
2018-08-04T10:08:11.750Z,36.68
2018-08-04T10:10:39.594Z,35.96
2018-08-04T10:13:07.618Z,35.65
2018-08-04T10:15:36.445Z,32.77
2018-08-04T10:18:05.334Z,32.59
2018-08-04T10:20:33.329Z,34.80
2018-08-04T10:23:02.056Z,33.03
2018-08-04T10:25:30.082Z,33.36
2018-08-04T10:27:57.897Z,33.94
2018-08-04T10:30:25.745Z,34.19
2018-08-04T10:32:53.689Z,34.34
2018-08-04T10:35:21.614Z,34.16
2018-08-04T10:37:49.569Z,33.15
2018-08-04T10:40:17.441Z,32.64
2018-08-04T10:42:45.270Z,32.97
2018-08-04T10:45:13.144Z,32.22
2018-08-04T10:47:41.304Z,31.42
2018-08-04T10:50:09.160Z,32.90
2018-08-04T10:52:37.069Z,33.73
2018-08-04T10:55:05.117Z,33.65
2018-08-04T10:57:32.925Z,34.77
2018-08-04T11:00:00.814Z,33.55
2018-08-04T11:02:28.682Z,32.42
2018-08-04T11:04:56.553Z,33.14
2018-08-04T11:07:24.482Z,34.88
2018-08-04T11:09:52.348Z,34.05
2018-08-04T11:12:20.168Z,31.54
2018-08-04T11:14:48.081Z,31.39
2018-08-04T11:17:21.858Z,32.34
2018-08-04T11:19:49.732Z,31.63
2018-08-04T11:22:18.516Z,32.12
2018-08-04T11:24:46.389Z,31.45
2018-08-04T11:27:14.597Z,30.13
2018-08-04T11:29:42.422Z,29.18
2018-08-04T11:32:10.223Z,31.51
2018-08-04T11:34:38.070Z,32.82
2018-08-04T11:37:06.015Z,32.74
2018-08-04T11:39:34.130Z,33.34
2018-08-04T11:42:01.977Z,32.07
2018-08-04T11:44:29.826Z,29.98
2018-08-04T11:46:57.629Z,29.01
2018-08-04T11:49:25.446Z,31.14
2018-08-04T11:51:53.313Z,28.70
2018-08-04T11:54:21.165Z,26.69
2018-08-04T11:56:49.079Z,28.44
2018-08-04T11:59:16.858Z,28.91
2018-08-04T12:01:44.694Z,27.40
2018-08-04T12:04:12.482Z,28.49
2018-08-04T12:06:40.328Z,28.47
2018-08-04T12:09:10.676Z,26.65
2018-08-04T12:11:38.536Z,26.00
2018-08-04T12:14:06.859Z,26.67
2018-08-04T12:16:34.733Z,26.39
2018-08-04T12:19:02.568Z,26.98
2018-08-04T12:21:30.419Z,28.16
2018-08-04T12:23:58.253Z,26.48
2018-08-04T12:26:26.182Z,26.77
2018-08-04T12:28:53.998Z,30.70
2018-08-04T12:31:21.863Z,31.89
2018-08-04T12:33:49.680Z,31.67
2018-08-04T12:36:17.829Z,30.92
2018-08-04T12:38:46.270Z,31.23
2018-08-04T12:41:14.123Z,31.77
2018-08-04T12:43:41.977Z,29.77
2018-08-04T12:46:09.772Z,30.22
2018-08-04T12:48:37.606Z,29.88
2018-08-04T12:51:05.511Z,31.49
2018-08-04T12:53:33.334Z,30.76
2018-08-04T12:56:01.269Z,28.66
2018-08-04T12:58:29.053Z,28.82
2018-08-04T13:00:56.941Z,28.14
2018-08-04T13:03:24.750Z,28.67
2018-08-04T13:05:52.607Z,30.41
2018-08-04T13:08:20.527Z,30.64
2018-08-04T13:10:49.255Z,31.01
2018-08-04T13:13:17.155Z,31.03
2018-08-04T13:15:45.026Z,31.32
2018-08-04T13:18:12.976Z,30.89
2018-08-04T13:20:40.816Z,31.75
2018-08-04T13:23:08.709Z,32.91
2018-08-04T13:25:36.557Z,33.83
2018-08-04T13:28:04.454Z,33.45
2018-08-04T13:30:32.597Z,33.04
2018-08-04T13:33:00.447Z,32.50
2018-08-04T13:35:28.314Z,32.50
2018-08-04T13:37:56.100Z,34.42
2018-08-04T13:40:23.909Z,34.06
2018-08-04T13:42:51.757Z,34.37
2018-08-04T13:45:19.547Z,34.04
2018-08-04T13:47:47.580Z,34.01
2018-08-04T13:50:15.457Z,34.03
2018-08-04T13:52:43.541Z,32.72
2018-08-04T13:55:11.454Z,34.27
2018-08-04T13:57:39.277Z,33.22
2018-08-04T14:00:07.783Z,33.50
2018-08-04T14:02:35.661Z,32.93
2018-08-04T14:05:03.903Z,31.83
2018-08-04T14:07:31.700Z,32.58
2018-08-04T14:09:59.505Z,31.61
2018-08-04T14:12:27.389Z,31.69
2018-08-04T14:14:55.306Z,31.33
2018-08-04T14:17:23.418Z,30.99
2018-08-04T14:19:51.237Z,30.64
2018-08-04T14:22:19.057Z,31.72
2018-08-04T14:24:46.862Z,32.44
2018-08-04T14:27:14.653Z,33.52
2018-08-04T14:29:42.482Z,34.06
2018-08-04T14:32:10.245Z,34.02
2018-08-04T14:34:38.047Z,34.88
2018-08-04T14:37:06.837Z,34.20
2018-08-04T14:39:34.654Z,34.34
2018-08-04T14:42:02.543Z,35.31
2018-08-04T14:44:30.432Z,34.92
2018-08-04T14:46:58.241Z,35.12
2018-08-04T14:49:26.062Z,35.69
2018-08-04T14:51:53.951Z,35.59
2018-08-04T14:54:21.790Z,36.28
2018-08-04T14:56:49.583Z,35.22
2018-08-04T14:59:17.384Z,34.60
2018-08-04T15:01:45.221Z,36.13
2018-08-04T15:04:13.396Z,36.91
2018-08-04T15:06:41.594Z,35.76
2018-08-04T15:09:10.861Z,35.90
2018-08-04T15:11:39.253Z,35.39
2018-08-04T15:14:07.165Z,34.07
2018-08-04T15:16:34.973Z,34.41
2018-08-04T15:19:02.950Z,33.43
2018-08-04T15:21:30.833Z,32.06
2018-08-04T15:23:58.728Z,32.46
2018-08-04T15:26:26.537Z,33.74
2018-08-04T15:28:54.343Z,32.90
2018-08-04T15:31:22.162Z,35.66
2018-08-04T15:33:50.150Z,36.00
2018-08-04T15:36:17.961Z,37.03
2018-08-04T15:38:45.806Z,36.29
2018-08-04T15:41:13.609Z,36.45
2018-08-04T15:43:41.414Z,36.23
2018-08-04T15:46:09.241Z,36.64
2018-08-04T15:48:37.046Z,36.69
2018-08-04T15:51:04.868Z,36.89
2018-08-04T15:53:32.713Z,36.42
2018-08-04T15:56:00.516Z,36.81
2018-08-04T15:58:28.375Z,36.98
2018-08-04T16:00:56.326Z,36.26
2018-08-04T16:03:24.137Z,35.97
2018-08-04T16:05:52.273Z,35.48
2018-08-04T16:08:20.298Z,34.91
2018-08-04T16:10:48.642Z,34.06
2018-08-04T16:13:16.443Z,34.28
2018-08-04T16:15:44.314Z,34.37
2018-08-04T16:18:12.376Z,34.56
2018-08-04T16:20:40.307Z,35.42
2018-08-04T16:23:08.155Z,35.60
2018-08-04T16:25:35.998Z,36.21
2018-08-04T16:28:03.975Z,36.82
2018-08-04T16:30:31.823Z,36.26
2018-08-04T16:32:59.657Z,36.25
2018-08-04T16:35:27.497Z,36.11
2018-08-04T16:37:55.387Z,36.04
2018-08-04T16:40:24.205Z,36.81
2018-08-04T16:42:52.017Z,36.39
2018-08-04T16:45:19.837Z,36.87
2018-08-04T16:47:47.677Z,37.76
2018-08-04T16:50:15.507Z,38.08
2018-08-04T16:52:43.423Z,38.90
2018-08-04T16:55:11.253Z,39.35
2018-08-04T16:57:39.075Z,40.79
2018-08-04T17:00:07.343Z,40.99
2018-08-04T17:02:35.239Z,44.35
2018-08-04T17:05:03.112Z,46.58
2018-08-04T17:07:30.973Z,46.18
2018-08-04T17:09:58.774Z,46.01
2018-08-04T17:12:26.595Z,47.00
2018-08-04T17:14:54.490Z,46.94
2018-08-04T17:17:22.316Z,47.05
2018-08-04T17:19:50.233Z,46.81
2018-08-04T17:22:18.096Z,47.34
2018-08-04T17:24:45.936Z,47.04
2018-08-04T17:27:14.069Z,47.49
2018-08-04T17:29:41.962Z,47.87
2018-08-04T17:32:09.774Z,47.15
2018-08-04T17:34:37.619Z,47.82
2018-08-04T17:37:05.570Z,47.32
2018-08-04T17:39:33.341Z,47.75
2018-08-04T17:42:01.154Z,48.58
2018-08-04T17:44:29.021Z,48.53
2018-08-04T17:46:56.772Z,48.66
2018-08-04T17:49:24.581Z,48.99
2018-08-04T17:51:52.374Z,48.38
2018-08-04T17:54:20.168Z,48.80
2018-08-04T17:56:47.989Z,49.89
2018-08-04T17:59:15.776Z,49.73
2018-08-04T18:01:43.625Z,50.07
2018-08-04T18:04:11.569Z,50.12
2018-08-04T18:06:39.610Z,50.50
2018-08-04T18:09:08.566Z,50.30
2018-08-04T18:11:36.758Z,50.99
2018-08-04T18:14:04.944Z,50.50
2018-08-04T18:16:32.780Z,49.44
2018-08-04T18:19:00.712Z,50.23
2018-08-04T18:21:28.549Z,49.77
2018-08-04T18:23:56.425Z,50.43
2018-08-04T18:26:24.263Z,50.30
2018-08-04T18:28:52.147Z,50.03
2018-08-04T18:31:20.010Z,49.41
2018-08-04T18:33:47.831Z,50.69
2018-08-04T18:36:15.649Z,50.04
2018-08-04T18:38:43.446Z,50.34
2018-08-04T18:41:11.281Z,50.78
2018-08-04T18:43:39.100Z,50.38
2018-08-04T18:46:07.030Z,50.37
2018-08-04T18:48:34.826Z,51.14
2018-08-04T18:51:02.646Z,50.80
2018-08-04T18:53:30.532Z,50.29
2018-08-04T18:55:58.411Z,49.80
2018-08-04T18:58:26.294Z,50.85
2018-08-04T19:00:54.344Z,50.72
2018-08-04T19:03:22.416Z,51.09
2018-08-04T19:05:50.409Z,51.13
2018-08-04T19:08:18.313Z,51.26
2018-08-04T19:10:46.286Z,52.07
2018-08-04T19:13:14.529Z,52.25
2018-08-04T19:15:42.475Z,52.84
2018-08-04T19:18:10.366Z,52.60
2018-08-04T19:20:38.215Z,53.30
2018-08-04T19:23:06.153Z,52.98
2018-08-04T19:25:33.994Z,53.40
2018-08-04T19:28:01.823Z,52.76
2018-08-04T19:30:29.643Z,53.55
2018-08-04T19:32:57.511Z,54.33
2018-08-04T19:35:25.416Z,53.98
2018-08-04T19:37:54.226Z,54.38
2018-08-04T19:40:22.081Z,54.81
2018-08-04T19:42:49.908Z,54.76
2018-08-04T19:45:17.729Z,56.08
2018-08-04T19:47:46.074Z,56.07
2018-08-04T19:50:13.881Z,55.94
2018-08-04T19:52:42.080Z,55.54
2018-08-04T19:55:09.882Z,55.90
2018-08-04T19:57:39.200Z,56.08
2018-08-04T20:00:07.749Z,56.37
2018-08-04T20:02:36.200Z,54.80
2018-08-04T20:05:04.515Z,55.01
2018-08-04T20:07:32.334Z,54.55
2018-08-04T20:10:00.154Z,54.97
2018-08-04T20:12:28.070Z,54.64
2018-08-04T20:14:55.966Z,54.89
2018-08-04T20:17:23.830Z,54.62
2018-08-04T20:19:51.678Z,55.45
2018-08-04T20:22:19.557Z,55.68
2018-08-04T20:24:47.457Z,55.44
2018-08-04T20:27:15.293Z,55.00
2018-08-04T20:29:44.508Z,54.04
2018-08-04T20:32:12.361Z,53.70
2018-08-04T20:34:40.240Z,53.72
2018-08-04T20:37:10.191Z,53.80
2018-08-04T20:39:38.043Z,52.65
2018-08-04T20:42:06.231Z,52.93
2018-08-04T20:44:34.101Z,52.96
2018-08-04T20:47:01.898Z,52.70
2018-08-04T20:49:29.709Z,53.42
2018-08-04T20:51:57.538Z,53.76
2018-08-04T20:54:25.394Z,54.15
2018-08-04T20:56:53.227Z,54.16
2018-08-04T20:59:21.054Z,54.36
2018-08-04T21:02:05.151Z,55.31
2018-08-04T21:04:34.037Z,54.08
2018-08-04T21:07:02.617Z,55.44
2018-08-04T21:09:30.473Z,56.29
2018-08-04T21:11:58.329Z,55.71
2018-08-04T21:14:27.161Z,56.45
2018-08-04T21:16:56.055Z,55.65
2018-08-04T21:19:24.499Z,55.64
2018-08-04T21:21:52.375Z,57.56
2018-08-04T21:24:22.350Z,57.42
2018-08-04T21:26:51.225Z,57.88
2018-08-04T21:29:19.083Z,57.25
2018-08-04T21:31:47.025Z,58.79
2018-08-04T21:34:14.866Z,59.28
2018-08-04T21:36:43.393Z,58.65
2018-08-04T21:39:13.314Z,59.13
2018-08-04T21:41:41.849Z,59.86
2018-08-04T21:44:09.754Z,59.37
2018-08-04T21:46:43.935Z,59.04
2018-08-04T21:49:11.840Z,58.22
2018-08-04T21:51:41.097Z,57.79
2018-08-04T21:54:09.354Z,57.95
2018-08-04T21:56:37.199Z,57.29
2018-08-04T21:59:05.148Z,56.97
2018-08-04T22:01:33.065Z,56.32
2018-08-04T22:04:00.940Z,55.69
2018-08-04T22:08:41.551Z,55.69
2018-08-04T22:11:09.359Z,55.86
2018-08-04T22:13:37.149Z,56.65
2018-08-04T22:16:05.100Z,57.02
2018-08-04T22:18:32.877Z,57.59
2018-08-04T22:21:00.706Z,59.27
2018-08-04T22:23:28.533Z,59.96
2018-08-04T22:25:56.336Z,60.20
2018-08-04T22:28:24.155Z,61.24
2018-08-04T22:30:51.951Z,60.75
2018-08-04T22:33:19.771Z,60.69
2018-08-04T22:35:47.696Z,61.79
2018-08-04T22:38:15.477Z,62.20
2018-08-04T22:40:43.322Z,63.67
2018-08-04T22:43:11.085Z,64.05
2018-08-04T22:45:57.440Z,64.53
2018-08-04T22:48:25.270Z,64.36
2018-08-04T22:50:53.061Z,63.41
2018-08-04T22:53:20.870Z,64.12
2018-08-04T22:55:48.745Z,64.28
2018-08-04T22:58:16.557Z,63.94
2018-08-04T23:00:44.737Z,63.66
2018-08-04T23:03:13.115Z,63.49
2018-08-04T23:05:40.990Z,63.52
2018-08-04T23:08:09.561Z,62.90
2018-08-04T23:10:38.076Z,62.72
2018-08-04T23:13:05.914Z,62.46
2018-08-04T23:15:33.797Z,62.52
2018-08-04T23:18:01.615Z,62.82
2018-08-04T23:20:29.560Z,62.44
2018-08-04T23:22:57.777Z,62.83
2018-08-04T23:25:25.566Z,61.53
2018-08-04T23:27:53.347Z,61.16
2018-08-04T23:30:21.486Z,61.22
2018-08-04T23:32:50.061Z,61.86
2018-08-04T23:35:17.845Z,61.92
2018-08-04T23:37:45.757Z,61.85
2018-08-04T23:40:13.585Z,62.71
2018-08-04T23:42:41.750Z,62.29
2018-08-04T23:45:09.583Z,62.37
2018-08-04T23:47:37.370Z,62.25
2018-08-04T23:50:05.281Z,63.04
2018-08-04T23:52:33.101Z,63.34
2018-08-04T23:55:00.881Z,62.80
2018-08-04T23:57:28.942Z,63.04
2018-08-04T23:59:56.810Z,62.95
